Time;durP1;ratioP1;P1;durP2;ratioP2;P2;SDS_P1;SDS_P2;PMS_P1;PMS_P2;Temp;Humidity;BMP_temperature;BMP_pressure;BME280_temperature;BME280_humidity;BME280_pressure;Samples;Min_cycle;Max_cycle;Signal;HPM_P1;HPM_P2
2023/12/02 00:03:35;;;;;;;13.10;8.20;;;;;;;;;;21012755;28;20290;-64
2023/12/02 00:13:38;;;;;;;13.77;8.33;;;;;;;;;;21006112;28;20264;-64
2023/12/02 00:23:40;;;;;;;17.80;9.43;;;;;;;;;;21005524;28;20211;-64
2023/12/02 00:33:42;;;;;;;13.33;8.07;;;;;;;;;;21004348;28;20295;-64
2023/12/02 00:43:44;;;;;;;15.03;8.43;;;;;;;;;;21003301;28;20237;-64
2023/12/02 00:53:46;;;;;;;13.37;7.93;;;;;;;;;;21003257;28;20207;-64
2023/12/02 01:03:49;;;;;;;13.47;8.17;;;;;;;;;;21001818;28;20229;-64
2023/12/02 01:13:51;;;;;;;23.37;9.23;;;;;;;;;;21000307;28;20204;-64
2023/12/02 01:23:53;;;;;;;15.47;9.07;;;;;;;;;;21000780;28;20332;-64
2023/12/02 01:33:56;;;;;;;14.47;7.87;;;;;;;;;;20999708;28;20307;-64
2023/12/02 01:43:58;;;;;;;15.83;8.07;;;;;;;;;;20998390;28;20244;-64
2023/12/02 01:54:00;;;;;;;13.00;7.97;;;;;;;;;;20998311;28;20199;-64
2023/12/02 02:04:03;;;;;;;15.00;8.57;;;;;;;;;;20997474;28;20284;-64
2023/12/02 02:14:05;;;;;;;15.83;8.17;;;;;;;;;;20996795;28;20302;-64
2023/12/02 02:24:07;;;;;;;13.03;7.37;;;;;;;;;;20996124;28;20256;-64
2023/12/02 02:34:09;;;;;;;15.30;8.07;;;;;;;;;;20995633;28;20257;-64
2023/12/02 02:44:12;;;;;;;13.73;7.60;;;;;;;;;;20995123;28;20243;-64
2023/12/02 02:54:14;;;;;;;13.63;7.67;;;;;;;;;;20994977;28;20207;-64
2023/12/02 03:04:16;;;;;;;13.63;8.10;;;;;;;;;;20994920;28;20231;-64
2023/12/02 03:14:18;;;;;;;12.53;7.33;;;;;;;;;;20994126;28;20608;-64
2023/12/02 03:24:20;;;;;;;13.13;7.47;;;;;;;;;;20993673;28;20235;-64
2023/12/02 03:34:22;;;;;;;15.83;7.77;;;;;;;;;;21000183;28;20671;-64
2023/12/02 03:44:25;;;;;;;14.00;7.47;;;;;;;;;;21008145;28;20238;-64
2023/12/02 03:54:27;;;;;;;14.33;7.67;;;;;;;;;;21007526;28;20290;-64
2023/12/02 04:04:29;;;;;;;14.73;7.90;;;;;;;;;;21007068;28;20597;-64
2023/12/02 04:14:31;;;;;;;13.97;7.90;;;;;;;;;;21006044;28;20207;-64
2023/12/02 04:24:33;;;;;;;14.23;7.30;;;;;;;;;;21005198;28;20231;-64
2023/12/02 04:34:36;;;;;;;14.93;8.17;;;;;;;;;;21004850;28;20714;-64
2023/12/02 04:44:38;;;;;;;13.37;7.30;;;;;;;;;;21003444;28;20238;-63
2023/12/02 04:54:40;;;;;;;15.50;8.37;;;;;;;;;;21003004;28;20211;-64
2023/12/02 05:04:42;;;;;;;11.87;7.03;;;;;;;;;;21002557;28;20230;-65
2023/12/02 05:14:44;;;;;;;10.57;6.53;;;;;;;;;;21001696;28;20209;-64
2023/12/02 05:24:47;;;;;;;13.33;7.50;;;;;;;;;;21000362;28;20608;-64
2023/12/02 05:34:49;;;;;;;12.97;7.33;;;;;;;;;;20999837;28;20565;-64
2023/12/02 05:44:51;;;;;;;16.70;8.27;;;;;;;;;;20998527;28;20239;-64
2023/12/02 05:54:53;;;;;;;10.90;6.57;;;;;;;;;;20997416;28;20207;-64
2023/12/02 06:04:55;;;;;;;12.17;7.30;;;;;;;;;;20997607;28;20234;-64
2023/12/02 06:14:58;;;;;;;16.07;8.03;;;;;;;;;;20996779;28;20605;-64
2023/12/02 06:25:00;;;;;;;15.27;7.77;;;;;;;;;;20996221;28;20278;-64
2023/12/02 06:35:04;;;;;;;10.90;6.60;;;;;;;;;;20996459;28;20658;-64
2023/12/02 06:45:06;;;;;;;12.83;7.13;;;;;;;;;;20995054;28;20242;-63
2023/12/02 06:55:09;;;;;;;12.63;7.17;;;;;;;;;;20995041;28;20627;-64
2023/12/02 07:05:15;;;;;;;10.20;6.20;;;;;;;;;;20995023;28;20662;-63
2023/12/02 07:15:17;;;;;;;14.83;7.67;;;;;;;;;;21010897;28;20612;-64
2023/12/02 07:25:19;;;;;;;17.77;9.07;;;;;;;;;;21009816;28;20690;-64
2023/12/02 07:35:21;;;;;;;19.60;9.33;;;;;;;;;;21009398;28;20295;-63
